createdAt,value
2022-08-20T00:01:02.559Z,2.07
2022-08-20T00:03:40.931Z,2.10
2022-08-20T00:06:17.344Z,2.10
2022-08-20T00:08:47.922Z,1.80
2022-08-20T00:11:20.098Z,2.20
2022-08-20T00:13:55.608Z,1.97
2022-08-20T00:16:35.093Z,1.93
2022-08-20T00:19:09.396Z,1.80
2022-08-20T00:21:39.615Z,1.83
2022-08-20T00:24:09.896Z,1.93
2022-08-20T00:26:51.949Z,1.90
2022-08-20T00:29:22.320Z,1.90
2022-08-20T00:31:52.350Z,2.00
2022-08-20T00:34:24.019Z,1.60
2022-08-20T00:36:55.056Z,2.00
2022-08-20T00:39:27.416Z,1.70
2022-08-20T00:41:59.882Z,1.70
2022-08-20T00:44:32.499Z,1.80
2022-08-20T00:47:05.451Z,1.70
2022-08-20T00:49:37.250Z,1.80
2022-08-20T00:52:15.909Z,1.40
2022-08-20T00:54:53.720Z,1.80
2022-08-20T00:57:26.018Z,1.83
2022-08-20T00:59:54.360Z,1.77
2022-08-20T01:02:28.359Z,1.63
2022-08-20T01:04:59.208Z,1.70
2022-08-20T01:07:50.451Z,1.63
2022-08-20T01:10:25.065Z,1.70
2022-08-20T01:13:01.207Z,1.43
2022-08-20T01:15:35.050Z,1.57
2022-08-20T01:18:06.031Z,1.50
2022-08-20T01:20:39.635Z,1.60
2022-08-20T01:23:41.580Z,1.63
2022-08-20T01:26:11.423Z,1.53
2022-08-20T01:28:52.866Z,1.60
2022-08-20T01:31:28.480Z,1.50
2022-08-20T01:34:00.254Z,1.33
2022-08-20T01:36:33.121Z,1.57
2022-08-20T01:39:01.852Z,1.40
2022-08-20T01:41:41.444Z,1.40
2022-08-20T01:44:16.913Z,1.50
2022-08-20T01:46:52.544Z,1.50
2022-08-20T01:52:11.313Z,1.43
2022-08-20T01:57:28.013Z,1.33
2022-08-20T01:59:56.266Z,1.37
2022-08-20T02:02:29.866Z,1.53
2022-08-20T02:05:00.963Z,1.57
2022-08-20T02:07:35.240Z,1.33
2022-08-20T02:10:10.050Z,1.60
2022-08-20T02:12:42.517Z,1.50
2022-08-20T02:15:13.715Z,1.57
2022-08-20T02:17:45.881Z,1.53
2022-08-20T02:20:35.612Z,1.40
2022-08-20T02:23:07.999Z,1.60
2022-08-20T02:25:36.539Z,1.23
2022-08-20T02:28:08.474Z,1.40
2022-08-20T02:30:39.575Z,1.57
2022-08-20T02:33:12.372Z,1.50
2022-08-20T02:35:44.930Z,1.53
2022-08-20T02:38:16.776Z,1.43
2022-08-20T02:40:49.275Z,1.47
2022-08-20T02:43:19.135Z,1.60
2022-08-20T02:45:48.185Z,1.40
2022-08-20T02:48:34.076Z,1.50
2022-08-20T02:51:10.518Z,1.50
2022-08-20T02:56:44.774Z,1.77
2022-08-20T02:59:19.852Z,1.50
2022-08-20T03:01:59.964Z,1.57
2022-08-20T03:04:31.103Z,1.37
2022-08-20T03:07:03.217Z,1.30
2022-08-20T03:09:31.962Z,1.27
2022-08-20T03:12:01.314Z,1.10
2022-08-20T03:14:32.572Z,1.30
2022-08-20T03:17:03.715Z,1.40
2022-08-20T03:19:35.060Z,1.20
2022-08-20T03:22:08.458Z,1.40
2022-08-20T03:24:42.126Z,1.40
2022-08-20T03:27:12.400Z,1.40
2022-08-20T03:29:43.062Z,1.43
2022-08-20T03:32:10.428Z,1.40
2022-08-20T03:34:41.990Z,1.57
2022-08-20T03:37:17.704Z,1.40
2022-08-20T03:39:50.293Z,1.50
2022-08-20T03:42:21.768Z,1.63
2022-08-20T03:44:58.974Z,1.40
2022-08-20T03:47:28.004Z,1.20
2022-08-20T03:50:02.070Z,1.40
2022-08-20T03:52:32.263Z,1.40
2022-08-20T03:55:01.006Z,1.30
2022-08-20T03:57:34.810Z,1.40
2022-08-20T04:00:07.213Z,1.40
2022-08-20T04:02:38.190Z,1.30
2022-08-20T04:05:09.191Z,1.57
2022-08-20T04:07:41.554Z,1.37
2022-08-20T04:10:16.370Z,1.40
2022-08-20T04:12:52.955Z,1.43
2022-08-20T04:15:30.562Z,1.40
2022-08-20T04:18:04.320Z,1.27
2022-08-20T04:20:37.027Z,1.50
2022-08-20T04:23:11.621Z,1.60
2022-08-20T04:25:48.828Z,1.60
2022-08-20T04:28:29.294Z,1.70
2022-08-20T04:30:59.693Z,1.60
2022-08-20T04:33:54.506Z,1.77
2022-08-20T04:36:25.482Z,1.70
2022-08-20T04:38:55.940Z,1.60
2022-08-20T04:41:25.606Z,1.83
2022-08-20T04:44:04.472Z,1.50
2022-08-20T04:46:34.343Z,1.47
2022-08-20T04:49:09.552Z,1.70
2022-08-20T04:51:40.067Z,1.63
2022-08-20T04:54:10.549Z,1.43
2022-08-20T04:56:42.790Z,1.63
2022-08-20T04:59:12.052Z,1.67
2022-08-20T05:01:48.231Z,1.83
2022-08-20T05:04:20.255Z,1.87
2022-08-20T05:06:52.423Z,2.63
2022-08-20T05:09:27.089Z,4.30
2022-08-20T05:11:58.810Z,4.10
2022-08-20T05:14:29.446Z,4.57
2022-08-20T05:17:08.963Z,5.10
2022-08-20T05:19:43.119Z,6.63
2022-08-20T05:22:13.675Z,6.23
2022-08-20T05:24:49.767Z,7.40
2022-08-20T05:27:24.966Z,7.90
2022-08-20T05:29:58.135Z,8.83
2022-08-20T05:32:30.481Z,9.63
2022-08-20T05:34:58.992Z,10.20
2022-08-20T05:37:32.520Z,10.97
2022-08-20T05:40:03.932Z,9.50
2022-08-20T05:42:36.377Z,10.07
2022-08-20T05:45:14.369Z,9.57
2022-08-20T05:47:43.130Z,9.53
2022-08-20T05:50:20.741Z,10.47
2022-08-20T05:52:53.345Z,13.03
2022-08-20T05:55:31.995Z,14.70
2022-08-20T05:58:02.485Z,14.43
2022-08-20T06:00:39.297Z,15.73
2022-08-20T06:03:27.885Z,14.73
2022-08-20T06:05:58.124Z,15.30
2022-08-20T06:08:32.083Z,15.80
2022-08-20T06:11:00.654Z,14.43
2022-08-20T06:13:30.960Z,15.90
2022-08-20T06:16:01.430Z,16.13
2022-08-20T06:18:34.232Z,16.57
2022-08-20T06:21:06.620Z,16.80
2022-08-20T06:23:54.301Z,15.87
2022-08-20T06:26:30.777Z,14.60
2022-08-20T06:29:03.301Z,15.10
2022-08-20T06:31:39.838Z,16.00
2022-08-20T06:34:11.637Z,16.53
2022-08-20T06:36:43.226Z,17.33
2022-08-20T06:39:14.169Z,15.53
2022-08-20T06:42:04.473Z,16.10
2022-08-20T06:44:41.994Z,18.07
2022-08-20T06:47:13.376Z,16.27
2022-08-20T06:49:43.906Z,16.13
2022-08-20T06:52:11.709Z,16.17
2022-08-20T06:54:40.680Z,15.57
2022-08-20T06:57:10.089Z,15.50
2022-08-20T06:59:41.396Z,16.03
2022-08-20T07:02:12.252Z,14.57
2022-08-20T07:04:45.869Z,14.33
2022-08-20T07:10:03.468Z,15.10
2022-08-20T07:12:35.060Z,15.03
2022-08-20T07:15:08.753Z,15.30
2022-08-20T07:17:38.291Z,14.83
2022-08-20T07:20:13.475Z,15.23
2022-08-20T07:22:42.596Z,15.37
2022-08-20T07:25:19.251Z,17.77
2022-08-20T07:27:48.603Z,17.40
2022-08-20T07:30:55.979Z,16.23
2022-08-20T07:33:29.943Z,17.77
2022-08-20T07:36:03.530Z,17.93
2022-08-20T07:38:36.423Z,17.03
2022-08-20T07:41:08.683Z,17.83
2022-08-20T07:43:37.209Z,18.27
2022-08-20T07:46:09.200Z,17.00
2022-08-20T07:48:42.356Z,16.93
2022-08-20T07:51:14.549Z,16.37
2022-08-20T07:53:46.265Z,16.00
2022-08-20T07:56:20.142Z,15.37
2022-08-20T07:58:59.633Z,16.27
2022-08-20T08:01:29.810Z,17.53
2022-08-20T08:04:03.230Z,17.53
2022-08-20T08:06:34.787Z,16.50
2022-08-20T08:09:09.858Z,17.83
2022-08-20T08:11:49.797Z,17.20
2022-08-20T08:14:27.120Z,16.60
2022-08-20T08:17:09.292Z,17.37
2022-08-20T08:19:40.221Z,16.80
2022-08-20T08:22:17.243Z,16.93
2022-08-20T08:24:59.241Z,16.97
2022-08-20T08:27:54.379Z,16.30
2022-08-20T08:30:26.611Z,15.83
2022-08-20T08:33:14.687Z,16.70
2022-08-20T08:35:52.868Z,15.70
2022-08-20T08:38:29.215Z,16.00
2022-08-20T08:41:00.863Z,15.30
2022-08-20T08:43:31.681Z,16.37
2022-08-20T08:46:06.380Z,16.43
2022-08-20T08:48:48.895Z,16.73
2022-08-20T08:51:23.235Z,17.50
2022-08-20T08:54:06.626Z,16.23
2022-08-20T08:56:43.594Z,16.00
2022-08-20T08:59:28.271Z,16.30
2022-08-20T09:02:31.013Z,17.57
2022-08-20T09:05:05.074Z,16.97
2022-08-20T09:07:35.190Z,17.87
2022-08-20T09:10:13.559Z,16.83
2022-08-20T09:12:47.612Z,16.27
2022-08-20T09:15:21.092Z,15.70
2022-08-20T09:17:53.090Z,14.60
2022-08-20T09:20:27.192Z,14.17
2022-08-20T09:23:02.499Z,14.27
2022-08-20T09:25:34.118Z,14.43
2022-08-20T09:28:04.175Z,13.43
2022-08-20T09:30:39.564Z,11.80
2022-08-20T09:33:07.182Z,12.47
2022-08-20T09:35:40.542Z,12.17
2022-08-20T09:38:09.293Z,11.40
2022-08-20T09:40:42.256Z,11.87
2022-08-20T09:43:15.683Z,10.93
2022-08-20T09:45:48.247Z,13.00
2022-08-20T09:48:21.154Z,13.00
2022-08-20T09:51:02.207Z,11.80
2022-08-20T09:53:35.564Z,10.23
2022-08-20T09:56:14.669Z,9.50
2022-08-20T09:59:03.895Z,10.47
2022-08-20T10:01:35.730Z,10.43
2022-08-20T10:04:10.202Z,10.13
2022-08-20T10:06:45.884Z,9.70
2022-08-20T10:09:16.243Z,10.10
2022-08-20T10:11:45.702Z,10.53
2022-08-20T10:14:17.074Z,10.37
2022-08-20T10:16:47.532Z,10.50
2022-08-20T10:19:18.731Z,9.40
2022-08-20T10:21:53.585Z,8.03
2022-08-20T10:27:05.887Z,7.33
2022-08-20T10:29:34.880Z,6.60
2022-08-20T10:32:19.923Z,6.73
2022-08-20T10:34:54.467Z,6.43
2022-08-20T10:37:30.298Z,6.30
2022-08-20T10:40:02.158Z,5.90
2022-08-20T10:42:33.335Z,5.90
2022-08-20T10:45:04.201Z,5.30
2022-08-20T10:47:35.382Z,5.23
2022-08-20T10:52:52.400Z,4.67
2022-08-20T10:55:28.781Z,4.20
2022-08-20T10:57:56.362Z,4.53
2022-08-20T11:00:26.183Z,4.00
2022-08-20T11:02:57.836Z,3.80
2022-08-20T11:05:31.461Z,3.80
2022-08-20T11:08:01.964Z,3.63
2022-08-20T11:10:37.352Z,2.60
2022-08-20T11:13:08.930Z,2.80
2022-08-20T11:15:38.907Z,3.20
2022-08-20T11:18:12.953Z,2.87
2022-08-20T11:20:42.397Z,2.90
2022-08-20T11:23:12.918Z,2.80
2022-08-20T11:25:45.370Z,2.87
2022-08-20T11:28:30.882Z,2.73
2022-08-20T11:31:04.815Z,2.87
2022-08-20T11:33:35.623Z,2.90
2022-08-20T11:36:08.735Z,3.10
2022-08-20T11:38:39.493Z,2.53
2022-08-20T11:41:09.616Z,2.80
2022-08-20T11:43:40.628Z,2.70
2022-08-20T11:46:08.102Z,3.03
2022-08-20T11:48:36.924Z,2.53
2022-08-20T11:51:07.644Z,2.40
2022-08-20T11:53:38.085Z,2.83
2022-08-20T11:56:09.348Z,2.53
2022-08-20T11:58:58.254Z,2.30
2022-08-20T12:01:30.987Z,2.20
2022-08-20T12:03:59.858Z,2.70
2022-08-20T12:06:29.153Z,2.30
2022-08-20T12:11:45.946Z,2.27
2022-08-20T12:14:19.447Z,2.60
2022-08-20T12:16:49.272Z,2.80
2022-08-20T12:19:24.060Z,2.60
2022-08-20T12:21:56.242Z,2.63
2022-08-20T12:24:27.314Z,2.73
2022-08-20T12:26:56.823Z,2.97
2022-08-20T12:29:41.595Z,2.63
2022-08-20T12:32:12.268Z,2.77
2022-08-20T12:34:51.207Z,2.50
2022-08-20T12:37:23.126Z,2.90
2022-08-20T12:39:53.643Z,3.60
2022-08-20T12:42:24.564Z,2.67
2022-08-20T12:44:52.924Z,3.17
2022-08-20T12:47:28.099Z,3.57
2022-08-20T12:49:56.657Z,3.50
2022-08-20T12:52:30.492Z,3.20
2022-08-20T12:55:02.706Z,2.90
2022-08-20T12:57:44.239Z,2.83
2022-08-20T13:00:35.281Z,3.20
2022-08-20T13:03:08.011Z,2.80
2022-08-20T13:05:43.055Z,2.93
2022-08-20T13:08:14.102Z,3.13
2022-08-20T13:10:47.666Z,2.87
2022-08-20T13:13:26.000Z,2.80
2022-08-20T13:15:56.260Z,2.37
2022-08-20T13:18:28.112Z,2.30
2022-08-20T13:20:57.306Z,2.67
2022-08-20T13:23:29.313Z,2.83
2022-08-20T13:26:00.519Z,2.60
2022-08-20T13:28:29.241Z,2.40
2022-08-20T13:30:57.827Z,2.83
2022-08-20T13:33:28.587Z,2.97
2022-08-20T13:35:57.366Z,2.30
2022-08-20T13:38:32.350Z,2.87
2022-08-20T13:41:03.641Z,2.73
2022-08-20T13:43:35.353Z,2.40
2022-08-20T13:46:16.907Z,2.63
2022-08-20T13:48:49.188Z,2.50
2022-08-20T13:51:18.143Z,3.23
2022-08-20T13:53:47.863Z,3.90
2022-08-20T13:56:19.900Z,3.83
2022-08-20T13:58:53.090Z,3.17
2022-08-20T14:01:24.541Z,3.00
2022-08-20T14:03:56.606Z,2.93
2022-08-20T14:06:31.404Z,2.80
2022-08-20T14:09:02.659Z,2.77
2022-08-20T14:11:32.207Z,3.00
2022-08-20T14:14:05.711Z,3.17
2022-08-20T14:16:36.359Z,4.57
2022-08-20T14:19:07.071Z,3.50
2022-08-20T14:21:38.671Z,3.77
2022-08-20T14:26:56.237Z,4.50
2022-08-20T14:29:26.680Z,3.90
2022-08-20T14:31:59.663Z,4.43
2022-08-20T14:34:29.636Z,3.90
2022-08-20T14:37:00.520Z,3.20
2022-08-20T14:39:29.684Z,2.87
2022-08-20T14:41:58.000Z,3.00
2022-08-20T14:44:40.896Z,2.87
2022-08-20T14:47:23.409Z,2.73
2022-08-20T14:49:53.591Z,2.93
2022-08-20T14:52:34.501Z,2.63
2022-08-20T14:55:07.853Z,2.57
2022-08-20T14:57:40.228Z,2.90
2022-08-20T15:00:16.598Z,2.60
2022-08-20T15:02:47.264Z,3.37
2022-08-20T15:05:19.270Z,2.97
2022-08-20T15:07:51.937Z,3.47
2022-08-20T15:10:29.741Z,3.13
2022-08-20T15:12:58.587Z,3.47
2022-08-20T15:15:29.730Z,3.00
2022-08-20T15:18:02.106Z,2.60
2022-08-20T15:20:34.177Z,3.40
2022-08-20T15:23:09.530Z,2.90
2022-08-20T15:25:40.603Z,2.83
2022-08-20T15:28:13.420Z,3.27
2022-08-20T15:30:46.795Z,3.43
2022-08-20T15:33:16.984Z,2.90
2022-08-20T15:35:47.795Z,3.00
2022-08-20T15:38:16.581Z,3.40
2022-08-20T15:40:53.587Z,3.50
2022-08-20T15:43:23.502Z,3.30
2022-08-20T15:45:50.917Z,3.17
2022-08-20T15:48:21.658Z,3.00
2022-08-20T15:50:55.627Z,3.60
2022-08-20T15:53:41.935Z,3.50
2022-08-20T15:56:18.927Z,3.70
2022-08-20T15:59:07.513Z,3.10
2022-08-20T16:01:50.134Z,3.57
2022-08-20T16:04:52.651Z,3.47
2022-08-20T16:07:37.176Z,3.20
2022-08-20T16:10:16.750Z,2.63
2022-08-20T16:12:51.395Z,3.17
2022-08-20T16:15:27.293Z,3.00
2022-08-20T16:18:22.027Z,3.13
2022-08-20T16:20:54.487Z,3.40
2022-08-20T16:23:31.605Z,3.13
2022-08-20T16:26:19.822Z,3.43
2022-08-20T16:29:11.448Z,3.27
2022-08-20T16:31:49.989Z,3.13
2022-08-20T16:34:33.173Z,3.47
2022-08-20T16:37:07.724Z,3.10
2022-08-20T16:39:43.792Z,3.33
2022-08-20T16:42:17.244Z,3.50
2022-08-20T16:44:51.674Z,3.00
2022-08-20T16:50:14.301Z,2.83
2022-08-20T16:52:47.710Z,2.97
2022-08-20T16:55:16.622Z,3.03
2022-08-20T16:57:51.476Z,2.83
2022-08-20T17:00:45.446Z,2.83
2022-08-20T17:03:33.509Z,2.67
2022-08-20T17:06:28.948Z,2.93
2022-08-20T17:09:08.650Z,2.90
2022-08-20T17:11:40.132Z,2.70
2022-08-20T17:14:15.500Z,2.63
2022-08-20T17:16:47.294Z,2.43
2022-08-20T17:19:20.294Z,2.30
2022-08-20T17:21:50.533Z,3.10
2022-08-20T17:24:27.596Z,2.80
2022-08-20T17:27:13.912Z,2.80
2022-08-20T17:30:05.720Z,2.70
2022-08-20T17:32:37.972Z,2.50
2022-08-20T17:35:10.568Z,2.97
2022-08-20T17:37:42.845Z,2.27
2022-08-20T17:40:20.917Z,2.57
2022-08-20T17:43:01.600Z,2.33
2022-08-20T17:45:37.356Z,2.40
2022-08-20T17:48:18.747Z,2.60
2022-08-20T17:50:51.053Z,2.50
2022-08-20T17:53:27.366Z,2.40
2022-08-20T17:56:00.879Z,2.37
2022-08-20T17:58:55.053Z,2.10
2022-08-20T18:01:27.106Z,2.20
2022-08-20T18:03:56.755Z,2.33
2022-08-20T18:06:45.602Z,2.43
2022-08-20T18:09:34.386Z,2.30
2022-08-20T18:12:34.241Z,2.10
2022-08-20T18:15:24.668Z,2.13
2022-08-20T18:18:07.460Z,1.83
2022-08-20T18:20:57.113Z,1.87
2022-08-20T18:23:28.867Z,2.23
2022-08-20T18:26:22.092Z,2.20
2022-08-20T18:28:58.538Z,2.13
2022-08-20T18:31:31.087Z,2.20
2022-08-20T18:36:56.880Z,3.30
2022-08-20T18:39:28.839Z,2.63
2022-08-20T18:42:05.031Z,2.30
2022-08-20T18:44:41.767Z,2.33
2022-08-20T18:47:37.213Z,2.70
2022-08-20T18:53:10.798Z,2.43
2022-08-20T18:56:08.174Z,2.30
2022-08-20T18:58:56.578Z,1.90
2022-08-20T19:01:26.438Z,2.50
2022-08-20T19:04:08.402Z,2.23
2022-08-20T19:06:44.214Z,2.03
2022-08-20T19:09:20.083Z,2.07
2022-08-20T19:12:06.343Z,2.20
2022-08-20T19:14:37.903Z,2.23
2022-08-20T19:17:13.783Z,2.80
2022-08-20T19:19:44.672Z,2.23
2022-08-20T19:22:17.862Z,2.10
2022-08-20T19:24:49.039Z,2.20
2022-08-20T19:27:23.147Z,2.50
2022-08-20T19:29:57.121Z,2.40
2022-08-20T19:32:50.898Z,2.60
2022-08-20T19:35:24.232Z,2.47
2022-08-20T19:37:55.667Z,2.80
2022-08-20T19:40:44.326Z,2.30
2022-08-20T19:43:20.358Z,2.20
2022-08-20T19:45:57.616Z,2.67
2022-08-20T19:51:55.413Z,3.37
2022-08-20T19:54:31.082Z,4.20
2022-08-20T19:57:11.647Z,4.13
2022-08-20T19:59:54.364Z,4.47
2022-08-20T20:02:26.267Z,5.00
2022-08-20T20:04:58.088Z,4.83
2022-08-20T20:07:44.430Z,4.63
2022-08-20T20:10:29.371Z,4.67
2022-08-20T20:13:11.039Z,3.70
2022-08-20T20:15:42.735Z,4.00
2022-08-20T20:18:15.282Z,3.83
2022-08-20T20:20:57.606Z,4.17
2022-08-20T20:23:45.833Z,3.90
2022-08-20T20:26:34.347Z,4.00
2022-08-20T20:29:30.641Z,3.40
2022-08-20T20:32:01.934Z,3.30
2022-08-20T20:34:34.775Z,3.00
2022-08-20T20:37:34.745Z,3.27
2022-08-20T20:40:25.420Z,3.30
2022-08-20T20:43:15.244Z,3.10
2022-08-20T20:45:45.629Z,3.27
2022-08-20T20:48:32.888Z,3.17
2022-08-20T20:51:13.974Z,2.50
2022-08-20T20:53:53.166Z,2.80
2022-08-20T20:56:49.503Z,2.67
2022-08-20T20:59:23.373Z,2.93
2022-08-20T21:01:58.838Z,2.70
2022-08-20T21:04:31.082Z,2.60
2022-08-20T21:07:08.850Z,2.60
2022-08-20T21:09:39.508Z,2.40
2022-08-20T21:12:10.901Z,2.70
2022-08-20T21:14:44.129Z,2.60
2022-08-20T21:17:19.332Z,2.63
2022-08-20T21:19:53.285Z,2.57
2022-08-20T21:22:21.556Z,2.60
2022-08-20T21:24:52.804Z,2.90
2022-08-20T21:27:27.798Z,2.90
2022-08-20T21:29:57.450Z,3.23
2022-08-20T21:32:29.029Z,2.57
2022-08-20T21:34:56.360Z,2.50
2022-08-20T21:37:28.499Z,3.00
2022-08-20T21:39:57.545Z,2.77
2022-08-20T21:42:29.249Z,3.00
2022-08-20T21:45:03.675Z,3.10
2022-08-20T21:47:35.416Z,3.80
2022-08-20T21:50:08.646Z,3.10
2022-08-20T21:52:38.105Z,3.30
2022-08-20T21:55:17.686Z,2.77
2022-08-20T21:57:49.419Z,3.37
2022-08-20T22:00:41.087Z,3.40
2022-08-20T22:03:14.176Z,3.00
2022-08-20T22:05:46.835Z,3.10
2022-08-20T22:08:18.258Z,3.37
2022-08-20T22:10:46.865Z,3.00
2022-08-20T22:13:17.882Z,2.87
2022-08-20T22:15:47.860Z,2.80
2022-08-20T22:18:20.752Z,3.03
2022-08-20T22:20:50.630Z,2.93
2022-08-20T22:23:23.058Z,2.93
2022-08-20T22:25:53.177Z,3.00
2022-08-20T22:28:24.558Z,3.13
2022-08-20T22:30:57.455Z,3.00
2022-08-20T22:33:27.670Z,2.90
2022-08-20T22:35:59.996Z,3.40
2022-08-20T22:38:32.329Z,2.97
2022-08-20T22:41:03.415Z,3.70
2022-08-20T22:43:45.047Z,3.20
2022-08-20T22:46:35.864Z,3.10
2022-08-20T22:49:05.403Z,3.23
2022-08-20T22:51:38.888Z,3.10
2022-08-20T22:54:13.525Z,3.10
2022-08-20T22:56:44.214Z,2.70
2022-08-20T22:59:21.433Z,2.83
2022-08-20T23:01:59.895Z,2.90
2022-08-20T23:04:34.778Z,3.23
2022-08-20T23:07:09.764Z,2.70
2022-08-20T23:09:43.876Z,3.17
2022-08-20T23:12:12.298Z,2.90
2022-08-20T23:14:44.240Z,2.83
2022-08-20T23:17:21.116Z,3.43
2022-08-20T23:19:52.855Z,3.43
2022-08-20T23:22:24.399Z,3.23
2022-08-20T23:25:19.218Z,2.77
2022-08-20T23:27:50.117Z,2.93
2022-08-20T23:30:22.919Z,2.73
2022-08-20T23:35:34.209Z,3.30
2022-08-20T23:40:55.755Z,2.70
2022-08-20T23:43:27.747Z,2.87
2022-08-20T23:46:02.169Z,2.70
2022-08-20T23:48:32.039Z,2.83
2022-08-20T23:51:05.152Z,2.70
2022-08-20T23:53:39.801Z,2.73
2022-08-20T23:56:12.022Z,2.50
2022-08-20T23:58:43.327Z,2.40
